createdAt,value
2019-04-23T00:01:50.984Z,99513.64
2019-04-23T00:04:19.917Z,99510.08
2019-04-23T00:07:15.709Z,99508.72
2019-04-23T00:09:26.036Z,99511.21
2019-04-23T00:12:01.871Z,99516.21
2019-04-23T00:14:38.297Z,99514.45
2019-04-23T00:17:12.040Z,99517.55
2019-04-23T00:19:42.331Z,99521.66
2019-04-23T00:22:15.067Z,99518.75
2019-04-23T00:30:01.022Z,99524.05
2019-04-23T00:32:37.930Z,99524.05
2019-04-23T00:35:05.893Z,99519.20
2019-04-23T00:38:01.257Z,99520.45
2019-04-23T00:40:12.826Z,99515.96
2019-04-23T00:43:03.370Z,99515.63
2019-04-23T00:45:27.046Z,99519.57
2019-04-23T00:53:20.335Z,99518.22
2019-04-23T00:55:35.224Z,99518.27
2019-04-23T00:58:15.832Z,99517.48
2019-04-23T01:03:11.871Z,99520.12
2019-04-23T01:05:50.423Z,99518.50
2019-04-23T01:11:16.391Z,99519.16
2019-04-23T01:13:39.597Z,99513.59
2019-04-23T01:18:49.111Z,99517.74
2019-04-23T01:21:01.286Z,99513.80
2019-04-23T01:23:58.151Z,99511.70
2019-04-23T01:26:57.598Z,99510.69
2019-04-23T01:29:20.212Z,99514.24
2019-04-23T01:31:58.571Z,99509.65
2019-04-23T01:34:31.903Z,99502.81
2019-04-23T01:37:01.178Z,99511.17
2019-04-23T01:39:32.742Z,99511.55
2019-04-23T01:42:14.588Z,99506.84
2019-04-23T01:44:42.369Z,99506.84
2019-04-23T01:47:21.488Z,99499.80
2019-04-23T01:49:54.702Z,99499.03
2019-04-23T01:52:24.900Z,99506.05
2019-04-23T01:54:51.990Z,99501.67
2019-04-23T01:57:30.883Z,99501.67
2019-04-23T02:00:03.159Z,99496.72
2019-04-23T02:02:39.100Z,99492.56
2019-04-23T02:07:44.339Z,99503.78
2019-04-23T02:10:21.898Z,99502.27
2019-04-23T02:12:47.698Z,99496.60
2019-04-23T02:15:23.035Z,99500.98
2019-04-23T02:17:58.572Z,99492.72
2019-04-23T02:20:30.812Z,99495.64
2019-04-23T02:23:13.279Z,99490.19
2019-04-23T02:28:09.148Z,99490.52
2019-04-23T02:30:57.824Z,99492.30
2019-04-23T02:38:31.539Z,99488.39
2019-04-23T02:43:21.993Z,99497.19
2019-04-23T02:46:09.327Z,99494.05
2019-04-23T02:51:13.356Z,99498.09
2019-04-23T02:53:55.587Z,99496.98
2019-04-23T02:58:55.023Z,99491.73
2019-04-23T03:01:36.015Z,99488.19
2019-04-23T03:04:04.053Z,99495.09
2019-04-23T03:06:32.183Z,99499.73
2019-04-23T03:09:00.444Z,99502.98
2019-04-23T03:11:41.712Z,99501.09
2019-04-23T03:14:18.678Z,99504.06
2019-04-23T03:22:05.953Z,99515.03
2019-04-23T03:24:54.514Z,99500.29
2019-04-23T03:27:29.168Z,99514.75
2019-04-23T03:34:34.587Z,99529.45
2019-04-23T03:40:11.613Z,99526.80
2019-04-23T03:42:53.933Z,99538.81
2019-04-23T03:45:36.976Z,99534.02
2019-04-23T03:48:05.669Z,99541.47
2019-04-23T03:50:39.413Z,99537.61
2019-04-23T03:53:18.462Z,99534.59
2019-04-23T03:55:54.585Z,99547.85
2019-04-23T04:03:55.596Z,99555.41
2019-04-23T04:06:05.320Z,99560.26
2019-04-23T04:08:36.121Z,99562.86
2019-04-23T04:11:18.143Z,99564.18
2019-04-23T04:19:07.541Z,99574.95
2019-04-23T04:21:31.951Z,99569.97
2019-04-23T04:24:05.154Z,99574.05
2019-04-23T04:26:34.908Z,99564.59
2019-04-23T04:31:42.840Z,99564.95
2019-04-23T04:34:22.285Z,99563.56
2019-04-23T04:36:45.567Z,99576.56
2019-04-23T04:39:06.061Z,99583.20
2019-04-23T04:41:52.616Z,99573.80
2019-04-23T04:46:49.899Z,99575.57
2019-04-23T04:49:30.472Z,99575.95
2019-04-23T04:52:13.486Z,99569.97
2019-04-23T04:54:37.638Z,99562.81
2019-04-23T04:57:13.092Z,99576.63
2019-04-23T05:02:22.497Z,99571.75
2019-04-23T05:04:53.989Z,99570.38
2019-04-23T05:09:55.165Z,99572.17
2019-04-23T05:12:29.077Z,99568.67
2019-04-23T05:15:03.019Z,99570.87
2019-04-23T05:17:43.174Z,99565.48
2019-04-23T05:25:05.775Z,99567.36
2019-04-23T05:27:53.666Z,99581.00
2019-04-23T05:30:22.563Z,99580.59
2019-04-23T05:32:57.938Z,99576.48
2019-04-23T05:35:39.900Z,99571.47
2019-04-23T05:38:08.742Z,99559.17
2019-04-23T05:43:03.387Z,99556.34
2019-04-23T05:50:59.079Z,99551.20
2019-04-23T05:53:21.584Z,99552.84
2019-04-23T05:55:55.421Z,99562.72
2019-04-23T05:58:33.025Z,99528.28
2019-04-23T06:06:55.785Z,99561.54
2019-04-23T06:09:10.565Z,99562.70
2019-04-23T06:14:11.379Z,99564.56
2019-04-23T06:16:58.970Z,99549.18
2019-04-23T06:24:29.250Z,99572.13
2019-04-23T06:27:01.738Z,99564.61
2019-04-23T06:29:32.201Z,99572.64
2019-04-23T06:32:02.316Z,99580.98
2019-04-23T06:34:33.960Z,99568.52
2019-04-23T06:37:12.747Z,99544.28
2019-04-23T06:39:41.307Z,99567.23
2019-04-23T06:42:11.646Z,99566.75
2019-04-23T06:44:59.878Z,99570.53
2019-04-23T06:47:20.134Z,99559.39
2019-04-23T06:49:55.907Z,99577.04
2019-04-23T06:55:03.010Z,99536.86
2019-04-23T06:57:33.331Z,99567.08
2019-04-23T07:00:07.476Z,99559.66
2019-04-23T07:05:20.605Z,99566.78
2019-04-23T07:07:52.733Z,99553.33
2019-04-23T07:10:18.650Z,99571.19
2019-04-23T07:12:59.705Z,99558.02
2019-04-23T07:17:58.048Z,99567.16
2019-04-23T07:20:33.507Z,99545.81
2019-04-23T07:23:13.865Z,99563.05
2019-04-23T07:25:39.046Z,99553.23
2019-04-23T07:28:21.283Z,99579.38
2019-04-23T07:30:52.168Z,99575.44
2019-04-23T07:33:19.198Z,99570.53
2019-04-23T07:35:51.777Z,99556.45
2019-04-23T07:38:42.164Z,99577.69
2019-04-23T07:41:23.630Z,99582.14
2019-04-23T07:44:05.844Z,99579.05
2019-04-23T07:46:40.741Z,99578.43
2019-04-23T07:49:11.897Z,99562.61
2019-04-23T07:51:46.755Z,99575.08
2019-04-23T07:54:19.384Z,99572.31
2019-04-23T07:56:53.843Z,99571.60
2019-04-23T07:59:30.816Z,99557.80
2019-04-23T08:01:57.410Z,99587.95
2019-04-23T08:04:36.908Z,99558.66
2019-04-23T08:07:01.275Z,99541.61
2019-04-23T08:10:02.348Z,99580.45
2019-04-23T08:12:31.331Z,99585.20
2019-04-23T08:15:02.250Z,99584.42
2019-04-23T08:17:31.204Z,99579.25
2019-04-23T08:20:07.662Z,99548.61
2019-04-23T08:22:39.382Z,99541.34
2019-04-23T08:25:26.641Z,99567.47
2019-04-23T08:27:51.823Z,99523.27
2019-04-23T08:30:15.890Z,99544.94
2019-04-23T08:32:57.424Z,99567.88
2019-04-23T08:35:30.076Z,99569.64
2019-04-23T08:38:12.279Z,99539.89
2019-04-23T08:40:33.543Z,99445.47
2019-04-23T08:43:34.856Z,99520.46
2019-04-23T08:46:05.890Z,99545.75
2019-04-23T08:51:24.119Z,99491.16
2019-04-23T08:53:40.741Z,99586.05
2019-04-23T08:56:18.443Z,99540.45
2019-04-23T08:58:47.293Z,99562.97
2019-04-23T09:01:24.533Z,99545.84
2019-04-23T09:03:52.657Z,99522.00
2019-04-23T09:06:27.646Z,99533.22
2019-04-23T09:09:04.581Z,99530.08
2019-04-23T09:14:00.944Z,99534.22
2019-04-23T09:16:44.679Z,99573.87
2019-04-23T09:19:20.023Z,99563.25
2019-04-23T09:21:50.542Z,99570.72
2019-04-23T09:24:20.140Z,99564.16
2019-04-23T09:26:58.952Z,99535.84
2019-04-23T09:29:36.640Z,99554.43
2019-04-23T09:34:46.539Z,99542.89
2019-04-23T09:37:35.745Z,99540.55
2019-04-23T09:40:18.454Z,99548.69
2019-04-23T09:48:11.774Z,99529.75
2019-04-23T09:50:56.949Z,99508.02
2019-04-23T09:53:27.832Z,99544.36
2019-04-23T09:55:45.482Z,99544.92
2019-04-23T09:58:23.823Z,99517.34
2019-04-23T10:01:19.629Z,99548.59
2019-04-23T10:03:38.210Z,99529.99
2019-04-23T10:06:02.970Z,99519.53
2019-04-23T10:08:35.537Z,99533.38
2019-04-23T10:11:03.288Z,99529.74
2019-04-23T10:13:34.631Z,99501.80
2019-04-23T10:16:06.882Z,99507.23
2019-04-23T10:18:39.398Z,99530.39
2019-04-23T10:21:11.206Z,99494.73
2019-04-23T10:23:43.303Z,99461.78
2019-04-23T10:26:14.482Z,99510.35
2019-04-23T10:28:51.984Z,99505.97
2019-04-23T10:31:24.947Z,99508.34
2019-04-23T10:33:57.814Z,99525.92
2019-04-23T10:36:31.715Z,99507.28
2019-04-23T10:39:10.702Z,99514.91
2019-04-23T10:41:38.465Z,99512.66
2019-04-23T10:44:13.436Z,99504.54
2019-04-23T10:47:20.033Z,99486.50
2019-04-23T10:50:05.443Z,99489.92
2019-04-23T10:52:33.713Z,99500.65
2019-04-23T10:55:06.119Z,99505.94
2019-04-23T10:57:33.027Z,99472.20
2019-04-23T11:00:09.494Z,99494.27
2019-04-23T11:03:14.031Z,99457.25
2019-04-23T11:05:29.115Z,99496.63
2019-04-23T11:07:42.067Z,99482.25
2019-04-23T11:13:27.285Z,99456.62
2019-04-23T11:15:44.237Z,99489.87
2019-04-23T11:18:06.343Z,99475.37
2019-04-23T11:20:45.413Z,99476.47
2019-04-23T11:23:11.591Z,99483.84
2019-04-23T11:26:06.614Z,99477.33
2019-04-23T11:28:27.931Z,99457.37
2019-04-23T11:30:55.787Z,99463.17
2019-04-23T11:33:50.898Z,99427.27
2019-04-23T11:36:35.618Z,99455.03
2019-04-23T11:41:22.841Z,99446.57
2019-04-23T11:43:50.789Z,99412.73
2019-04-23T11:46:35.855Z,99454.76
2019-04-23T11:49:04.613Z,99437.15
2019-04-23T11:57:04.406Z,99429.69
2019-04-23T11:59:12.353Z,99398.39
2019-04-23T12:04:35.004Z,99384.45
2019-04-23T12:07:25.959Z,99389.98
2019-04-23T12:12:32.840Z,99361.36
2019-04-23T12:17:48.952Z,99408.05
2019-04-23T12:20:25.644Z,99354.10
2019-04-23T12:23:01.157Z,99398.72
2019-04-23T12:25:32.895Z,99386.98
2019-04-23T12:27:42.448Z,99375.12
2019-04-23T12:30:33.999Z,99330.80
2019-04-23T12:33:04.181Z,99394.52
2019-04-23T12:35:43.406Z,99365.80
2019-04-23T12:38:14.242Z,99319.58
2019-04-23T12:40:40.532Z,99354.48
2019-04-23T12:43:15.604Z,99362.93
2019-04-23T12:45:57.621Z,99378.37
2019-04-23T12:48:36.846Z,99370.22
2019-04-23T12:53:30.579Z,99331.98
2019-04-23T12:56:03.717Z,99339.48
2019-04-23T12:58:29.173Z,99338.48
2019-04-23T13:01:06.776Z,99335.52
2019-04-23T13:06:13.690Z,99308.61
2019-04-23T13:09:01.453Z,99353.41
2019-04-23T13:11:25.404Z,99346.63
2019-04-23T13:13:58.835Z,99317.95
2019-04-23T13:19:06.412Z,99347.15
2019-04-23T13:21:51.432Z,99319.78
2019-04-23T13:24:15.675Z,99312.22
2019-04-23T13:26:44.536Z,99315.34
2019-04-23T13:29:27.284Z,99314.05
2019-04-23T13:31:50.172Z,99321.13
2019-04-23T13:34:34.735Z,99314.70
2019-04-23T13:37:00.483Z,99320.07
2019-04-23T13:39:39.902Z,99309.48
2019-04-23T13:42:19.892Z,99309.81
2019-04-23T13:44:51.887Z,99306.89
2019-04-23T13:47:28.212Z,99303.59
2019-04-23T13:49:57.213Z,99263.01
2019-04-23T13:52:59.733Z,99231.14
2019-04-23T13:55:09.412Z,99303.20
2019-04-23T14:00:09.032Z,99258.30
2019-04-23T14:02:46.236Z,99309.56
2019-04-23T14:05:23.256Z,99283.27
2019-04-23T14:07:57.031Z,99302.61
2019-04-23T14:10:34.173Z,99291.85
2019-04-23T14:13:15.101Z,99294.66
2019-04-23T14:15:46.281Z,99283.19
2019-04-23T14:18:27.347Z,99298.59
2019-04-23T14:20:40.399Z,99294.64
2019-04-23T14:23:29.317Z,99297.11
2019-04-23T14:26:10.880Z,99279.11
2019-04-23T14:28:28.974Z,99275.19
2019-04-23T14:31:01.147Z,99272.52
2019-04-23T14:33:40.535Z,99305.36
2019-04-23T14:36:02.843Z,99265.28
2019-04-23T14:38:40.049Z,99281.22
2019-04-23T14:41:16.506Z,99246.55
2019-04-23T14:43:56.047Z,99278.75
2019-04-23T14:46:38.523Z,99268.64
2019-04-23T14:51:49.914Z,99259.48
2019-04-23T14:54:36.251Z,99280.31
2019-04-23T14:59:19.875Z,99267.53
2019-04-23T15:02:05.481Z,99271.03
2019-04-23T15:04:43.432Z,99243.52
2019-04-23T15:07:15.659Z,99267.49
2019-04-23T15:12:22.678Z,99286.92
2019-04-23T15:14:59.372Z,99289.67
2019-04-23T15:20:03.051Z,99293.77
2019-04-23T15:22:47.957Z,99294.48
2019-04-23T15:25:19.344Z,99268.31
2019-04-23T15:30:04.081Z,99295.58
2019-04-23T15:32:54.464Z,99290.70
2019-04-23T15:38:27.062Z,99276.39
2019-04-23T15:40:25.180Z,99267.41
2019-04-23T15:43:04.781Z,99272.62
2019-04-23T15:45:38.376Z,99277.62
2019-04-23T15:48:11.255Z,99276.63
2019-04-23T15:50:43.473Z,99233.70
2019-04-23T15:53:25.042Z,99247.52
2019-04-23T15:55:49.686Z,99269.33
2019-04-23T15:58:30.040Z,99274.00
2019-04-23T16:01:18.374Z,99227.54
2019-04-23T16:03:20.617Z,99235.03
2019-04-23T16:05:52.967Z,99243.84
2019-04-23T16:09:04.743Z,99244.94
2019-04-23T16:11:41.191Z,99216.79
2019-04-23T16:14:16.758Z,99242.84
2019-04-23T16:19:17.208Z,99245.63
2019-04-23T16:24:17.737Z,99244.58
2019-04-23T16:26:55.855Z,99239.37
2019-04-23T16:34:34.056Z,99245.20
2019-04-23T16:37:08.461Z,99253.79
2019-04-23T16:39:49.322Z,99244.95
2019-04-23T16:42:24.881Z,99251.07
2019-04-23T16:47:32.954Z,99243.34
2019-04-23T16:53:05.032Z,99253.03
2019-04-23T16:57:59.847Z,99247.09
2019-04-23T17:03:06.791Z,99276.83
2019-04-23T17:05:33.678Z,99271.92
2019-04-23T17:08:33.850Z,99265.84
2019-04-23T17:10:38.879Z,99262.41
2019-04-23T17:15:53.479Z,99260.34
2019-04-23T17:18:17.334Z,99258.45
2019-04-23T17:23:31.686Z,99263.67
2019-04-23T17:26:00.883Z,99262.83
2019-04-23T17:31:24.600Z,99261.74
2019-04-23T17:39:00.686Z,99261.49
2019-04-23T17:44:31.517Z,99267.99
2019-04-23T17:46:50.446Z,99275.69
2019-04-23T17:49:23.382Z,99281.56
2019-04-23T17:52:11.475Z,99277.66
2019-04-23T18:00:08.316Z,99294.48
2019-04-23T18:05:02.565Z,99298.25
2019-04-23T18:10:18.315Z,99299.59
2019-04-23T18:15:10.651Z,99307.19
2019-04-23T18:20:36.899Z,99307.27
2019-04-23T18:23:08.492Z,99305.63
2019-04-23T18:28:10.390Z,99313.38
2019-04-23T18:30:59.992Z,99308.95
2019-04-23T18:33:54.662Z,99317.30
2019-04-23T18:35:56.722Z,99317.56
2019-04-23T18:38:53.252Z,99307.84
2019-04-23T18:48:50.073Z,99305.83
2019-04-23T18:51:40.662Z,99305.09
2019-04-23T18:53:52.733Z,99318.05
2019-04-23T18:56:51.507Z,99315.18
2019-04-23T19:01:47.852Z,99320.55
2019-04-23T19:04:58.565Z,99309.24
2019-04-23T19:07:27.384Z,99319.16
2019-04-23T19:12:41.416Z,99311.52
2019-04-23T19:15:21.634Z,99306.29
2019-04-23T19:17:56.606Z,99312.21
2019-04-23T19:20:37.916Z,99304.77
2019-04-23T19:22:58.827Z,99309.02
2019-04-23T19:25:28.089Z,99303.72
2019-04-23T19:28:09.190Z,99308.34
2019-04-23T19:30:46.403Z,99310.30
2019-04-23T19:41:02.218Z,99303.34
2019-04-23T19:46:36.641Z,99306.28
2019-04-23T19:49:07.316Z,99294.05
2019-04-23T19:51:17.138Z,99297.58
2019-04-23T19:56:45.297Z,99284.08
2019-04-23T19:58:59.699Z,99288.18
2019-04-23T20:01:36.342Z,99298.81
2019-04-23T20:03:56.099Z,99271.67
2019-04-23T20:06:58.578Z,99276.06
2019-04-23T20:11:50.233Z,99274.94
2019-04-23T20:14:10.837Z,99279.19
2019-04-23T20:17:04.101Z,99292.10
2019-04-23T20:19:33.775Z,99292.67
2019-04-23T20:30:15.524Z,99285.61
2019-04-23T20:35:06.584Z,99301.13
2019-04-23T20:38:09.785Z,99301.33
2019-04-23T20:40:18.657Z,99293.80
2019-04-23T20:42:48.128Z,99296.80
2019-04-23T20:47:52.822Z,99296.61
2019-04-23T20:50:18.169Z,99302.55
2019-04-23T20:52:53.188Z,99291.77
2019-04-23T20:55:38.527Z,99309.23
2019-04-23T20:58:03.653Z,99305.72
2019-04-23T21:00:56.389Z,99299.67
2019-04-23T21:06:04.287Z,99300.98
2019-04-23T21:10:55.608Z,99283.86
2019-04-23T21:16:04.938Z,99291.39
2019-04-23T21:21:22.273Z,99282.25
2019-04-23T21:26:17.415Z,99275.05
2019-04-23T21:29:17.445Z,99287.80
2019-04-23T21:31:32.142Z,99281.75
2019-04-23T21:36:44.386Z,99279.80
2019-04-23T21:42:07.473Z,99284.80
2019-04-23T21:44:18.335Z,99290.27
2019-04-23T21:47:06.409Z,99288.20
2019-04-23T21:52:07.968Z,99283.86
2019-04-23T21:54:47.337Z,99291.84
2019-04-23T21:57:11.044Z,99299.12
2019-04-23T21:59:52.191Z,99294.95
2019-04-23T22:02:36.157Z,99289.41
2019-04-23T22:04:52.059Z,99281.32
2019-04-23T22:07:29.317Z,99282.70
2019-04-23T22:09:57.625Z,99275.38
2019-04-23T22:12:33.867Z,99292.02
2019-04-23T22:14:55.653Z,99288.10
2019-04-23T22:17:37.472Z,99292.42
2019-04-23T22:20:26.468Z,99300.65
2019-04-23T22:22:58.778Z,99300.91
2019-04-23T22:25:13.293Z,99310.11
2019-04-23T22:27:50.769Z,99302.13
2019-04-23T22:30:22.387Z,99300.65
2019-04-23T22:33:09.531Z,99306.45
2019-04-23T22:35:35.566Z,99310.39
2019-04-23T22:40:34.945Z,99305.57
2019-04-23T22:43:15.004Z,99308.83
2019-04-23T22:48:13.901Z,99301.75
2019-04-23T22:50:57.543Z,99285.02
2019-04-23T22:53:15.249Z,99298.48
2019-04-23T22:56:03.369Z,99295.05
2019-04-23T22:58:31.671Z,99299.87
2019-04-23T23:01:15.889Z,99291.89
2019-04-23T23:03:49.040Z,99303.88
2019-04-23T23:06:18.194Z,99295.95
2019-04-23T23:09:01.086Z,99292.22
2019-04-23T23:11:28.734Z,99295.14
2019-04-23T23:14:10.157Z,99286.52
2019-04-23T23:16:27.831Z,99293.27
2019-04-23T23:19:03.927Z,99289.45
2019-04-23T23:21:44.368Z,99288.15
2019-04-23T23:24:07.439Z,99284.56
2019-04-23T23:26:49.982Z,99287.67
2019-04-23T23:29:19.150Z,99293.77
2019-04-23T23:34:36.892Z,99279.02
2019-04-23T23:37:08.865Z,99276.26
2019-04-23T23:39:35.234Z,99272.01
2019-04-23T23:42:09.824Z,99258.54
2019-04-23T23:44:56.201Z,99285.64
2019-04-23T23:47:14.728Z,99286.44
2019-04-23T23:50:07.382Z,99287.36
2019-04-23T23:52:33.177Z,99286.05
2019-04-23T23:54:59.382Z,99287.67
2019-04-23T23:57:32.251Z,99282.31
